Time;durP1;ratioP1;P1;durP2;ratioP2;P2;SDS_P1;SDS_P2;PMS_P1;PMS_P2;Temp;Humidity;BMP_temperature;BMP_pressure;BME280_temperature;BME280_humidity;BME280_pressure;Samples;Min_cycle;Max_cycle;Signal;HPM_P1;HPM_P2
2022/01/23 00:04:34;;;;;;;16.85;14.65;;;7.20;69.60;;;;;;5067871;28;20052;-77
2022/01/23 00:07:04;;;;;;;16.65;14.18;;;7.10;69.40;;;;;;5066372;28;20403;-78
2022/01/23 00:09:31;;;;;;;18.95;14.70;;;7.20;69.60;;;;;;5067201;28;20025;-77
2022/01/23 00:11:59;;;;;;;16.25;14.48;;;7.10;69.40;;;;;;5067941;28;20398;-78
2022/01/23 00:19:42;;;;;;;16.02;14.40;;;7.10;69.40;;;;;;5066175;28;20028;-78
2022/01/23 00:22:10;;;;;;;17.80;13.85;;;7.10;69.40;;;;;;5066878;28;20419;-78
2022/01/23 00:30:25;;;;;;;14.05;12.60;;;7.20;69.60;;;;;;5067118;28;20082;-77
2022/01/23 00:32:52;;;;;;;14.57;13.07;;;7.20;69.60;;;;;;5065925;28;20495;-77
2022/01/23 00:35:19;;;;;;;16.13;13.82;;;7.10;69.40;;;;;;5067055;28;20406;-78
2022/01/23 00:37:45;;;;;;;16.15;13.70;;;7.10;69.40;;;;;;5049016;28;20400;-77
2022/01/23 00:40:11;;;;;;;16.25;13.48;;;7.10;69.40;;;;;;5066018;28;20495;-77
2022/01/23 00:42:39;;;;;;;16.42;13.93;;;7.10;69.40;;;;;;5065684;28;20111;-78
2022/01/23 00:47:54;;;;;;;16.35;13.50;;;7.10;69.50;;;;;;5067199;28;20033;-78
2022/01/23 00:50:20;;;;;;;13.82;12.38;;;7.10;69.50;;;;;;5046139;28;20107;-79
2022/01/23 00:52:46;;;;;;;15.75;13.73;;;7.10;69.50;;;;;;5047122;28;20033;-79
2022/01/23 00:55:12;;;;;;;14.88;13.35;;;7.10;69.50;;;;;;5062522;28;20085;-79
2022/01/23 00:57:38;;;;;;;14.63;12.80;;;7.10;69.50;;;;;;5062598;28;20045;-79
2022/01/23 01:00:06;;;;;;;16.20;12.65;;;7.10;69.50;;;;;;5045971;28;20119;-79
2022/01/23 01:02:32;;;;;;;13.77;12.30;;;7.10;69.50;;;;;;5045776;28;20032;-77
2022/01/23 01:04:59;;;;;;;14.35;12.10;;;7.10;69.50;;;;;;5062885;28;20067;-78
2022/01/23 01:07:25;;;;;;;14.85;13.30;;;7.10;69.50;;;;;;5048466;28;20075;-77
2022/01/23 01:09:53;;;;;;;16.88;13.25;;;7.10;69.50;;;;;;5065122;28;20025;-77
2022/01/23 01:12:24;;;;;;;15.45;12.82;;;7.10;69.50;;;;;;5065291;28;20029;-78
2022/01/23 01:17:40;;;;;;;15.13;12.98;;;7.10;69.50;;;;;;5065265;28;20040;-78
2022/01/23 01:31:18;;;;;;;15.68;12.95;;;7.10;69.50;;;;;;5067122;28;20066;-78
2022/01/23 01:38:44;;;;;;;14.07;12.55;;;7.10;69.50;;;;;;5066179;28;20423;-77
2022/01/23 01:41:10;;;;;;;14.27;11.85;;;7.10;69.60;;;;;;5049568;28;20413;-78
2022/01/23 01:43:36;;;;;;;13.77;11.43;;;7.10;69.50;;;;;;5049203;28;20024;-78
2022/01/23 01:46:03;;;;;;;12.35;11.02;;;7.10;69.60;;;;;;5048866;28;20049;-78
2022/01/23 01:48:45;;;;;;;15.38;13.13;;;7.00;69.40;;;;;;5059424;28;20051;-78
2022/01/23 01:51:15;;;;;;;13.45;11.75;;;7.00;69.40;;;;;;5029093;28;20116;-78
2022/01/23 01:53:49;;;;;;;13.77;12.13;;;7.00;69.40;;;;;;5045621;28;20071;-78
2022/01/23 01:56:16;;;;;;;12.90;11.60;;;7.00;69.40;;;;;;5061717;28;20061;-78
2022/01/23 02:09:43;;;;;;;14.93;11.10;;;7.10;69.60;;;;;;5065326;28;20032;-78
2022/01/23 02:12:54;;;;;;;13.50;12.07;;;7.10;69.60;;;;;;5065009;28;20021;-78
2022/01/23 02:22:27;;;;;;;13.50;11.60;;;7.10;69.60;;;;;;5065485;28;20096;-78
2022/01/23 02:56:46;;;;;;;12.38;11.10;;;7.00;69.50;;;;;;5072225;28;20229;-77
2022/01/23 02:59:22;;;;;;;12.07;10.70;;;7.00;69.60;;;;;;5071411;28;20032;-77
2022/01/23 03:05:05;;;;;;;13.27;11.68;;;7.00;69.60;;;;;;5071008;28;20039;-77
2022/01/23 03:08:58;;;;;;;13.18;11.48;;;7.00;69.50;;;;;;5055885;28;20044;-77
2022/01/23 03:10:42;;;;;;;12.02;10.75;;;7.00;69.50;;;;;;5074850;28;20070;-78
2022/01/23 03:26:37;;;;;;;12.68;10.95;;;7.00;69.50;;;;;;5096050;28;20071;-77
2022/01/23 03:31:59;;;;;;;12.65;11.35;;;7.00;69.50;;;;;;5096599;28;20013;-78
2022/01/23 03:34:27;;;;;;;12.30;10.70;;;7.00;69.60;;;;;;5095739;28;20040;-78
2022/01/23 03:36:55;;;;;;;12.70;10.57;;;7.00;69.60;;;;;;5064580;28;20063;-78
2022/01/23 03:39:21;;;;;;;12.15;10.85;;;7.00;69.60;;;;;;5071999;28;20083;-78
2022/01/23 03:41:48;;;;;;;12.85;11.00;;;7.00;69.60;;;;;;5071163;28;20036;-78
2022/01/23 03:44:16;;;;;;;12.98;11.43;;;7.00;69.60;;;;;;5054281;28;20037;-78
2022/01/23 03:49:31;;;;;;;11.88;10.68;;;6.90;69.40;;;;;;5070512;28;20476;-79
2022/01/23 03:52:05;;;;;;;14.02;11.55;;;7.00;69.60;;;;;;5071047;28;20068;-79
2022/01/23 03:54:34;;;;;;;12.63;11.25;;;6.90;69.50;;;;;;5069893;28;20083;-78
2022/01/23 03:57:02;;;;;;;12.40;11.10;;;6.90;69.50;;;;;;5071498;28;20094;-77
2022/01/23 03:59:32;;;;;;;12.52;11.23;;;6.90;69.50;;;;;;5053648;28;20031;-77
2022/01/23 04:01:58;;;;;;;13.07;11.20;;;7.00;69.60;;;;;;5069888;28;20236;-77
2022/01/23 04:07:06;;;;;;;11.85;10.65;;;7.00;69.70;;;;;;5070157;28;20107;-77
2022/01/23 04:09:33;;;;;;;12.57;11.00;;;6.90;69.50;;;;;;5071103;28;20086;-78
2022/01/23 04:12:00;;;;;;;12.45;10.93;;;6.90;69.50;;;;;;5069994;28;20032;-78
2022/01/23 04:14:30;;;;;;;11.70;10.50;;;6.90;69.50;;;;;;5069536;28;20036;-78
2022/01/23 04:20:00;;;;;;;12.68;11.38;;;6.90;69.50;;;;;;5069305;28;20037;-77
2022/01/23 05:00:46;;;;;;;13.57;11.93;;;6.90;69.50;;;;;;5069446;28;20036;-78
2022/01/23 05:06:29;;;;;;;13.23;11.93;;;6.90;69.50;;;;;;5067981;28;20119;-77
2022/01/23 05:09:18;;;;;;;13.40;11.93;;;6.90;69.50;;;;;;5070374;28;20024;-78
2022/01/23 05:12:10;;;;;;;14.73;12.52;;;6.90;69.50;;;;;;5069430;28;20115;-78
2022/01/23 05:14:42;;;;;;;13.52;12.13;;;6.90;69.50;;;;;;5070217;28;20056;-78
2022/01/23 05:17:14;;;;;;;16.20;12.55;;;6.90;69.50;;;;;;5069070;28;20045;-78
2022/01/23 05:19:42;;;;;;;13.45;11.60;;;6.90;69.50;;;;;;5069927;28;20496;-78
2022/01/23 05:22:32;;;;;;;14.55;13.05;;;6.90;69.50;;;;;;5070023;28;20056;-78
2022/01/23 05:25:08;;;;;;;14.32;12.43;;;6.90;69.50;;;;;;5069887;28;20115;-78
2022/01/23 05:27:34;;;;;;;14.07;12.68;;;6.90;69.50;;;;;;5068773;28;20033;-78
2022/01/23 05:30:01;;;;;;;14.75;13.07;;;6.90;69.50;;;;;;5069075;28;20128;-76
2022/01/23 05:32:40;;;;;;;14.55;12.90;;;6.80;69.30;;;;;;5070229;28;20491;-76
2022/01/23 05:35:09;;;;;;;14.05;12.50;;;6.80;69.30;;;;;;5068438;28;20141;-77
2022/01/23 05:37:38;;;;;;;14.25;12.77;;;6.90;69.50;;;;;;5072171;28;20051;-77
2022/01/23 05:40:11;;;;;;;14.43;12.93;;;6.90;69.50;;;;;;5072580;28;20028;-77
2022/01/23 05:42:40;;;;;;;14.30;12.82;;;6.80;69.40;;;;;;5072725;28;20035;-79
2022/01/23 05:45:08;;;;;;;13.90;12.48;;;6.80;69.40;;;;;;5072309;28;20020;-78
2022/01/23 05:48:10;;;;;;;14.65;13.00;;;6.90;69.50;;;;;;5046980;28;20484;-78
2022/01/23 05:51:00;;;;;;;13.80;12.40;;;6.90;69.50;;;;;;5047658;28;20043;-78
2022/01/23 05:53:38;;;;;;;15.57;13.98;;;6.80;69.30;;;;;;5067185;28;20074;-78
2022/01/23 05:56:07;;;;;;;13.90;12.48;;;6.80;69.30;;;;;;5070134;28;20471;-79
2022/01/23 05:58:51;;;;;;;15.07;13.50;;;6.90;69.50;;;;;;5069951;28;20028;-78
2022/01/23 06:01:20;;;;;;;14.00;12.60;;;6.80;69.30;;;;;;5068825;28;20024;-78
2022/01/23 06:03:48;;;;;;;15.05;13.45;;;6.80;69.30;;;;;;5068757;28;20145;-78
2022/01/23 06:06:18;;;;;;;16.52;14.13;;;6.90;69.50;;;;;;5068626;28;20166;-78
2022/01/23 06:08:45;;;;;;;13.93;12.50;;;6.90;69.50;;;;;;5068333;28;20085;-79
2022/01/23 06:11:11;;;;;;;15.00;13.38;;;6.80;69.30;;;;;;5068504;28;20024;-79
2022/01/23 06:13:40;;;;;;;16.40;14.70;;;6.90;69.50;;;;;;5068475;28;20025;-79
2022/01/23 06:16:08;;;;;;;15.57;14.00;;;6.80;69.30;;;;;;5051541;28;20024;-79
2022/01/23 06:18:39;;;;;;;16.13;14.48;;;6.90;69.50;;;;;;5058471;28;20044;-79
2022/01/23 06:21:24;;;;;;;17.20;14.65;;;6.90;69.50;;;;;;5048623;28;20070;-79
2022/01/23 06:24:14;;;;;;;16.30;13.85;;;6.90;69.50;;;;;;5049925;28;20041;-79
2022/01/23 06:27:01;;;;;;;15.45;13.80;;;6.90;69.40;;;;;;5048061;28;20037;-80
2022/01/23 06:29:30;;;;;;;16.38;14.52;;;6.90;69.40;;;;;;5064620;28;20401;-79
2022/01/23 06:31:58;;;;;;;16.30;14.60;;;6.90;69.40;;;;;;5052069;28;20025;-80
2022/01/23 06:34:27;;;;;;;16.10;14.13;;;7.00;69.50;;;;;;5069931;28;20411;-79
2022/01/23 06:36:53;;;;;;;14.48;12.98;;;7.00;69.50;;;;;;5069404;28;20043;-79
2022/01/23 06:39:23;;;;;;;16.98;14.75;;;7.00;69.50;;;;;;5053886;28;20055;-79
2022/01/23 06:41:54;;;;;;;16.35;14.70;;;7.00;69.40;;;;;;5068024;28;20043;-80
2022/01/23 06:44:36;;;;;;;15.65;13.95;;;7.00;69.40;;;;;;5052260;28;20537;-80
2022/01/23 06:47:05;;;;;;;16.38;13.90;;;7.00;69.30;;;;;;5067510;28;20037;-80
2022/01/23 06:49:31;;;;;;;16.20;14.50;;;7.00;69.30;;;;;;5066828;28;20033;-80
2022/01/23 06:51:57;;;;;;;16.80;13.20;;;7.00;69.30;;;;;;5050459;28;20029;-79
2022/01/23 06:54:27;;;;;;;17.38;15.20;;;7.00;69.30;;;;;;5066906;28;20025;-79
2022/01/23 06:56:55;;;;;;;15.95;13.88;;;7.00;69.30;;;;;;5065918;28;20155;-79
2022/01/23 06:59:21;;;;;;;16.73;14.35;;;7.10;69.40;;;;;;5066020;28;20052;-79
2022/01/23 07:01:54;;;;;;;16.95;14.95;;;7.10;69.40;;;;;;5049254;28;20043;-79
2022/01/23 07:04:49;;;;;;;17.10;14.55;;;7.10;69.40;;;;;;5051795;28;20120;-78
2022/01/23 07:07:34;;;;;;;15.13;13.52;;;7.10;69.40;;;;;;5050648;28;20025;-79
2022/01/23 07:10:21;;;;;;;15.90;14.20;;;7.10;69.30;;;;;;5054301;28;20078;-79
2022/01/23 07:13:06;;;;;;;15.82;14.18;;;7.10;69.30;;;;;;5061849;28;20094;-78
2022/01/23 07:16:02;;;;;;;15.82;13.98;;;7.10;69.30;;;;;;5065418;28;20495;-78
2022/01/23 07:18:50;;;;;;;15.88;14.07;;;7.10;69.30;;;;;;5067217;28;20032;-79
2022/01/23 07:21:16;;;;;;;15.68;12.40;;;7.10;69.20;;;;;;5069481;28;20049;-79
2022/01/23 07:23:50;;;;;;;14.05;12.57;;;7.10;69.30;;;;;;5067321;28;20040;-80
2022/01/23 07:26:20;;;;;;;15.13;12.90;;;7.10;69.50;;;;;;5067135;28;20113;-76
2022/01/23 07:28:49;;;;;;;14.43;12.93;;;7.10;69.60;;;;;;5066857;28;20029;-78
2022/01/23 07:31:43;;;;;;;14.68;12.23;;;7.20;69.80;;;;;;5067490;28;20052;-80
2022/01/23 07:34:13;;;;;;;13.75;11.75;;;7.20;69.80;;;;;;5067402;28;20081;-78
2022/01/23 07:36:40;;;;;;;14.18;12.68;;;7.20;69.70;;;;;;5066162;28;20028;-79
2022/01/23 07:39:26;;;;;;;14.52;13.02;;;7.20;69.70;;;;;;5048460;28;20036;-78
2022/01/23 07:41:52;;;;;;;14.35;12.85;;;7.20;69.70;;;;;;5066856;28;20558;-78
2022/01/23 07:44:41;;;;;;;14.93;12.55;;;7.20;69.60;;;;;;5068740;28;20032;-79
2022/01/23 07:47:29;;;;;;;15.10;12.30;;;7.20;69.60;;;;;;5068120;28;20081;-79
2022/01/23 07:50:19;;;;;;;13.48;12.07;;;7.30;69.80;;;;;;5066773;28;20396;-83
2022/01/23 07:53:06;;;;;;;14.10;12.70;;;7.20;69.60;;;;;;5036033;28;20040;-80
2022/01/23 07:55:40;;;;;;;14.55;12.80;;;7.20;69.60;;;;;;5066767;28;20051;-80
2022/01/23 07:58:18;;;;;;;14.23;12.60;;;7.20;69.60;;;;;;5059437;28;20033;-80
2022/01/23 08:01:11;;;;;;;14.43;13.00;;;7.20;69.60;;;;;;5037820;28;20555;-79
2022/01/23 08:04:12;;;;;;;13.70;12.25;;;7.20;69.50;;;;;;5055369;28;20037;-81
2022/01/23 08:06:41;;;;;;;14.18;12.68;;;7.20;69.50;;;;;;5066027;28;20028;-80
2022/01/23 08:09:26;;;;;;;15.48;13.27;;;7.20;69.50;;;;;;5067947;28;20309;-79
2022/01/23 08:11:52;;;;;;;15.40;13.80;;;7.20;69.70;;;;;;5066336;28;20178;-81
2022/01/23 08:14:19;;;;;;;15.52;13.93;;;7.20;69.80;;;;;;5065794;28;20047;-82
2022/01/23 08:16:45;;;;;;;13.95;12.25;;;7.30;70.10;;;;;;5067454;28;20047;-81
2022/01/23 08:19:11;;;;;;;14.38;12.88;;;7.30;70.10;;;;;;5064836;28;20388;-80
2022/01/23 08:21:37;;;;;;;14.52;13.02;;;7.30;70.00;;;;;;5059086;28;20394;-79
2022/01/23 08:24:03;;;;;;;15.57;13.25;;;7.30;70.00;;;;;;5054849;28;20036;-80
2022/01/23 08:26:29;;;;;;;15.35;12.95;;;7.30;70.00;;;;;;5046693;28;20033;-80
2022/01/23 08:28:55;;;;;;;15.15;13.65;;;7.30;70.00;;;;;;5058377;28;20075;-80
2022/01/23 08:31:21;;;;;;;13.95;12.48;;;7.30;70.00;;;;;;5065516;28;20048;-80
2022/01/23 08:33:48;;;;;;;15.88;13.50;;;7.30;70.00;;;;;;5065584;28;20039;-81
2022/01/23 08:36:15;;;;;;;14.65;12.32;;;7.30;70.00;;;;;;5065967;28;20039;-81
2022/01/23 08:38:42;;;;;;;15.50;13.18;;;7.30;70.00;;;;;;5065471;28;20043;-81
2022/01/23 08:43:38;;;;;;;14.05;12.48;;;7.30;69.90;;;;;;5065421;28;20036;-80
2022/01/23 08:46:05;;;;;;;14.98;12.85;;;7.30;69.90;;;;;;5049169;28;20032;-79
2022/01/23 08:48:31;;;;;;;14.80;13.00;;;7.30;69.80;;;;;;5066967;28;20039;-80
2022/01/23 08:50:57;;;;;;;15.02;13.40;;;7.30;69.80;;;;;;5066928;28;20081;-80
2022/01/23 08:53:25;;;;;;;14.55;13.07;;;7.30;69.70;;;;;;5067183;28;20036;-80
2022/01/23 08:55:51;;;;;;;14.63;13.15;;;7.30;69.70;;;;;;5065579;28;20025;-80
2022/01/23 08:58:17;;;;;;;15.50;13.57;;;7.30;69.60;;;;;;5065692;28;20870;-80
2022/01/23 09:00:43;;;;;;;14.07;12.55;;;7.40;69.70;;;;;;5066756;28;20028;-79
2022/01/23 09:03:09;;;;;;;15.52;13.48;;;7.30;69.50;;;;;;5066636;28;20083;-80
2022/01/23 09:05:35;;;;;;;14.10;12.68;;;7.30;69.40;;;;;;5066753;28;20025;-79
2022/01/23 09:08:01;;;;;;;13.93;12.52;;;7.40;69.60;;;;;;5066553;28;20392;-78
2022/01/23 09:10:29;;;;;;;15.18;13.68;;;7.40;69.50;;;;;;5065297;28;20107;-79
2022/01/23 09:13:07;;;;;;;14.77;13.18;;;7.40;69.50;;;;;;5069846;28;20040;-79
2022/01/23 09:15:33;;;;;;;14.98;13.32;;;7.40;69.40;;;;;;5064898;28;20111;-80
2022/01/23 09:18:03;;;;;;;14.85;13.13;;;7.40;69.40;;;;;;5069927;28;20036;-79
2022/01/23 09:20:29;;;;;;;15.35;13.07;;;7.40;69.30;;;;;;5069252;28;20028;-79
2022/01/23 09:22:55;;;;;;;15.55;13.88;;;7.40;69.30;;;;;;5070554;28;20033;-80
2022/01/23 09:25:21;;;;;;;15.10;13.55;;;7.50;69.40;;;;;;5070569;28;20459;-79
2022/01/23 09:27:48;;;;;;;14.57;13.15;;;7.40;69.20;;;;;;5070455;28;20073;-77
2022/01/23 09:30:20;;;;;;;14.57;13.07;;;7.50;69.30;;;;;;5069635;28;20024;-78
2022/01/23 09:32:48;;;;;;;14.45;13.05;;;7.50;69.20;;;;;;5070673;28;20029;-77
2022/01/23 09:35:15;;;;;;;16.75;14.30;;;7.50;69.20;;;;;;5070367;28;20028;-77
2022/01/23 09:37:42;;;;;;;15.23;13.70;;;7.50;69.10;;;;;;5069800;28;20448;-77
2022/01/23 09:40:09;;;;;;;14.45;12.95;;;7.50;69.10;;;;;;5068978;28;20119;-78
2022/01/23 09:42:45;;;;;;;15.35;13.85;;;7.50;69.00;;;;;;5070129;28;20505;-78
2022/01/23 09:45:13;;;;;;;14.55;13.10;;;7.60;69.10;;;;;;5070278;28;20039;-78
2022/01/23 09:47:41;;;;;;;15.27;13.55;;;7.60;69.00;;;;;;5068087;28;20538;-80
2022/01/23 09:50:11;;;;;;;14.88;13.43;;;7.60;68.90;;;;;;5052473;28;20031;-78
2022/01/23 09:52:37;;;;;;;14.02;12.63;;;7.60;68.90;;;;;;5068523;28;20031;-77
2022/01/23 09:55:09;;;;;;;15.27;13.68;;;7.70;69.00;;;;;;5068513;28;20054;-78
2022/01/23 09:57:45;;;;;;;15.40;13.88;;;7.70;68.90;;;;;;5051992;28;20511;-79
2022/01/23 10:00:24;;;;;;;15.48;13.98;;;7.70;68.80;;;;;;5070329;28;20024;-85
2022/01/23 10:02:51;;;;;;;14.98;13.52;;;7.70;68.70;;;;;;5070158;28;20128;-87
2022/01/23 10:05:18;;;;;;;14.75;13.13;;;7.80;68.90;;;;;;5052955;28;20031;-87
2022/01/23 10:07:44;;;;;;;14.23;12.68;;;7.80;68.80;;;;;;5071716;28;20199;-86
2022/01/23 10:10:17;;;;;;;14.48;13.07;;;7.80;68.70;;;;;;5070329;28;20029;-88
2022/01/23 10:12:50;;;;;;;16.10;13.70;;;7.80;68.60;;;;;;5070137;28;20476;-81
2022/01/23 10:15:16;;;;;;;;;;;7.90;68.60;;;;;;5070376;28;20124;-77
2022/01/23 10:17:43;;;;;;;14.55;13.05;;;7.90;68.60;;;;;;5070040;28;20275;-80
2022/01/23 10:20:11;;;;;;;18.17;15.13;;;7.90;68.50;;;;;;5070021;28;20036;-80
2022/01/23 10:22:40;;;;;;;16.45;13.60;;;8.00;69.10;;;;;;5069615;28;20059;-80
2022/01/23 10:25:12;;;;;;;14.80;13.07;;;8.00;68.50;;;;;;5068390;28;20041;-83
2022/01/23 10:28:16;;;;;;;13.90;12.50;;;8.10;68.60;;;;;;5070125;28;20468;-82
2022/01/23 10:30:53;;;;;;;14.77;13.27;;;8.10;68.50;;;;;;5031395;28;20035;-83
2022/01/23 10:33:27;;;;;;;15.15;13.55;;;8.10;68.50;;;;;;5069492;28;20039;-82
2022/01/23 10:35:57;;;;;;;14.85;13.10;;;8.10;68.50;;;;;;5069743;28;20572;-82
2022/01/23 10:38:30;;;;;;;14.45;12.95;;;8.10;68.30;;;;;;5068166;28;20052;-81
2022/01/23 10:41:06;;;;;;;15.13;13.00;;;8.20;68.50;;;;;;5069702;28;20024;-81
2022/01/23 10:49:03;;;;;;;12.27;10.27;;;8.20;68.40;;;;;;5069378;28;20562;-82
2022/01/23 10:51:36;;;;;;;11.70;10.48;;;8.30;68.70;;;;;;5085044;28;20060;-80
2022/01/23 10:54:13;;;;;;;14.10;11.60;;;8.40;69.80;;;;;;5063892;28;20033;-90
2022/01/23 10:56:54;;;;;;;12.30;11.10;;;8.50;69.40;;;;;;5048694;28;20075;-84
2022/01/23 10:59:21;;;;;;;12.80;11.20;;;8.60;69.60;;;;;;5051162;28;20135;-85
2022/01/23 11:02:08;;;;;;;13.52;9.98;;;8.80;69.70;;;;;;5068397;28;20080;-88
2022/01/23 11:04:50;;;;;;;16.60;13.10;;;8.90;70.00;;;;;;5068083;28;20044;-85
2022/01/23 11:07:16;;;;;;;12.20;9.73;;;9.10;70.70;;;;;;5068320;28;20070;-85
2022/01/23 11:09:42;;;;;;;16.40;10.15;;;9.40;71.20;;;;;;5084095;28;20086;-85
2022/01/23 11:12:27;;;;;;;12.63;10.32;;;9.80;71.40;;;;;;5068159;28;20028;-84
2022/01/23 11:17:51;;;;;;;12.05;10.88;;;10.30;71.10;;;;;;5067303;28;20075;-85
2022/01/23 11:20:37;;;;;;;13.60;11.23;;;10.30;70.80;;;;;;5068543;28;20177;-85
2022/01/23 11:23:22;;;;;;;12.63;11.32;;;10.30;70.90;;;;;;5068886;28;20040;-84
2022/01/23 11:25:57;;;;;;;12.43;11.15;;;10.30;71.00;;;;;;5051354;28;20032;-83
2022/01/23 11:28:37;;;;;;;11.73;10.50;;;10.20;71.00;;;;;;5068584;28;20025;-90
2022/01/23 11:31:05;;;;;;;11.25;10.15;;;10.20;71.20;;;;;;5069878;28;20082;-91
2022/01/23 11:33:32;;;;;;;11.73;10.52;;;10.20;71.40;;;;;;5068328;28;20388;-93
2022/01/23 11:35:59;;;;;;;12.35;11.05;;;10.10;71.30;;;;;;5080616;28;20076;-87
2022/01/23 11:38:27;;;;;;;13.32;10.65;;;10.10;71.40;;;;;;5092310;28;20260;-86
2022/01/23 11:54:40;;;;;;;13.52;11.40;;;10.00;71.40;;;;;;5090741;28;20024;-90
2022/01/23 11:57:36;;;;;;;13.27;11.25;;;9.90;71.10;;;;;;5073648;28;20064;-90
2022/01/23 12:00:27;;;;;;;14.80;11.90;;;9.90;70.90;;;;;;5074108;28;20029;-90
2022/01/23 12:03:14;;;;;;;12.57;11.13;;;9.90;70.90;;;;;;5069873;28;20024;-89
2022/01/23 12:05:44;;;;;;;15.38;11.68;;;9.90;70.80;;;;;;5065798;28;20131;-85
2022/01/23 12:08:20;;;;;;;12.60;11.23;;;9.90;70.80;;;;;;5061654;28;20203;-87
2022/01/23 12:11:34;;;;;;;12.95;11.65;;;9.90;71.30;;;;;;5071968;28;20047;-90
2022/01/23 12:17:00;;;;;;;14.65;11.48;;;9.90;70.70;;;;;;5071446;28;20029;-90
2022/01/23 12:19:32;;;;;;;12.40;11.18;;;9.90;70.70;;;;;;5052874;28;20058;-89
2022/01/23 12:22:21;;;;;;;14.95;11.52;;;9.80;70.40;;;;;;5069293;28;20112;-91
2022/01/23 12:24:54;;;;;;;12.75;11.45;;;9.90;70.60;;;;;;5051329;28;20398;-89
2022/01/23 12:27:27;;;;;;;14.80;11.90;;;9.90;70.60;;;;;;5080714;28;20028;-87
2022/01/23 12:30:19;;;;;;;13.10;11.73;;;9.80;70.40;;;;;;5071559;28;20092;-88
2022/01/23 12:32:46;;;;;;;12.80;11.23;;;9.80;70.40;;;;;;5067507;28;20068;-88
2022/01/23 12:35:13;;;;;;;13.57;12.23;;;9.80;70.40;;;;;;5063467;28;20088;-89
2022/01/23 12:38:00;;;;;;;13.50;12.13;;;9.80;70.40;;;;;;5080825;28;20064;-89
2022/01/23 12:40:36;;;;;;;12.85;11.55;;;9.80;70.30;;;;;;5067599;28;20075;-89
2022/01/23 12:43:06;;;;;;;13.85;12.45;;;9.80;70.30;;;;;;5068575;28;20032;-85
2022/01/23 12:45:52;;;;;;;14.75;12.52;;;9.80;70.20;;;;;;5069145;28;20033;-91
2022/01/23 12:48:30;;;;;;;13.45;12.15;;;9.80;70.20;;;;;;5068643;28;20524;-89
2022/01/23 12:50:59;;;;;;;13.50;12.18;;;9.80;70.10;;;;;;5068051;28;20040;-87
2022/01/23 12:53:45;;;;;;;12.80;11.40;;;9.80;70.10;;;;;;5067543;28;20440;-86
2022/01/23 12:56:18;;;;;;;15.45;12.40;;;9.70;69.90;;;;;;5065949;28;20461;-80
2022/01/23 12:58:54;;;;;;;15.07;13.55;;;9.70;69.90;;;;;;5067616;28;20145;-80
2022/01/23 13:01:25;;;;;;;13.98;12.57;;;9.70;69.60;;;;;;5066849;28;20411;-82
2022/01/23 13:03:52;;;;;;;15.82;11.93;;;9.70;69.50;;;;;;5067167;28;20031;-82
2022/01/23 13:06:35;;;;;;;18.00;13.95;;;9.60;69.40;;;;;;5065616;28;20032;-79
2022/01/23 13:12:46;;;;;;;13.68;12.18;;;9.70;69.60;;;;;;5066779;28;20629;-88
2022/01/23 13:31:40;;;;;;;18.55;16.73;;;9.70;69.20;;;;;;5067339;28;20048;-87
2022/01/23 13:34:26;;;;;;;16.80;15.10;;;9.60;68.90;;;;;;5068793;28;20530;-92
2022/01/23 13:37:14;;;;;;;17.38;15.65;;;9.60;68.80;;;;;;5067566;28;20029;-92
2022/01/23 13:39:48;;;;;;;16.73;15.02;;;9.60;68.70;;;;;;5068460;28;20539;-92
2022/01/23 13:59:53;;;;;;;20.10;16.98;;;9.60;68.50;;;;;;5015746;28;20127;-88
2022/01/23 14:02:28;;;;;;;19.23;17.23;;;9.60;68.60;;;;;;5072203;28;20062;-89
2022/01/23 14:05:33;;;;;;;20.85;18.73;;;9.60;68.60;;;;;;5071992;28;20028;-91
2022/01/23 14:08:01;;;;;;;19.67;17.08;;;9.60;68.60;;;;;;5070009;28;20122;-91
2022/01/23 14:10:35;;;;;;;20.83;18.63;;;9.60;68.60;;;;;;5070869;28;20474;-92
2022/01/23 14:13:15;;;;;;;20.50;18.40;;;9.60;68.50;;;;;;5070865;28;20034;-91
2022/01/23 14:15:49;;;;;;;22.58;20.17;;;9.60;68.60;;;;;;5052665;28;20039;-82
2022/01/23 14:18:26;;;;;;;21.48;19.17;;;9.60;68.50;;;;;;5070006;28;20135;-88
2022/01/23 14:21:09;;;;;;;22.40;19.48;;;9.50;68.30;;;;;;5069053;28;20089;-83
2022/01/23 14:23:36;;;;;;;22.88;19.67;;;9.50;68.30;;;;;;5070747;28;20038;-89
2022/01/23 14:26:13;;;;;;;19.35;17.30;;;9.60;68.50;;;;;;5068464;28;20056;-83
2022/01/23 14:28:44;;;;;;;21.77;19.42;;;9.50;68.30;;;;;;5068104;28;20104;-84
2022/01/23 14:31:18;;;;;;;22.60;20.27;;;9.60;68.70;;;;;;5068610;28;20060;-84
2022/01/23 14:33:51;;;;;;;23.50;20.98;;;9.60;68.70;;;;;;5068337;28;20032;-88
2022/01/23 14:36:22;;;;;;;24.63;21.00;;;9.60;68.60;;;;;;5069184;28;20024;-89
2022/01/23 14:39:12;;;;;;;26.70;22.85;;;9.60;68.60;;;;;;5068453;28;20039;-83
2022/01/23 14:41:43;;;;;;;23.83;21.27;;;9.60;68.50;;;;;;5070258;28;20082;-88
2022/01/23 14:44:25;;;;;;;24.00;21.48;;;9.60;68.50;;;;;;5070778;28;20028;-92
2022/01/23 14:46:56;;;;;;;24.80;21.80;;;9.50;68.30;;;;;;5070418;28;20036;-91
2022/01/23 14:49:27;;;;;;;26.42;23.45;;;9.60;68.50;;;;;;5068654;28;20295;-89
2022/01/23 14:51:56;;;;;;;33.47;29.88;;;9.50;68.30;;;;;;5069889;28;20028;-88
2022/01/23 14:54:24;;;;;;;26.58;23.48;;;9.50;68.10;;;;;;5068892;28;20103;-89
2022/01/23 14:56:51;;;;;;;28.05;25.13;;;9.50;68.00;;;;;;5070660;28;20042;-88
2022/01/23 14:59:17;;;;;;;29.65;26.38;;;9.50;68.10;;;;;;5069132;28;20436;-93
2022/01/23 15:01:46;;;;;;;30.25;26.63;;;9.40;68.00;;;;;;5072318;28;20043;-94
2022/01/23 15:04:15;;;;;;;30.52;27.23;;;9.40;67.90;;;;;;5054236;28;20021;-92
2022/01/23 15:06:46;;;;;;;30.95;26.55;;;9.40;67.90;;;;;;5075115;28;20033;-92
2022/01/23 15:09:15;;;;;;;29.42;26.33;;;9.40;67.90;;;;;;5070012;28;20028;-92
2022/01/23 15:11:41;;;;;;;33.83;27.65;;;9.40;67.90;;;;;;5069078;28;20086;-90
2022/01/23 15:14:10;;;;;;;31.98;28.55;;;9.40;67.90;;;;;;5070708;28;20184;-92
2022/01/23 15:16:37;;;;;;;31.60;28.13;;;9.40;67.90;;;;;;5052939;28;20033;-91
2022/01/23 15:19:04;;;;;;;30.50;27.15;;;9.30;67.80;;;;;;5071086;28;20430;-90
2022/01/23 15:21:31;;;;;;;34.17;30.25;;;9.30;67.80;;;;;;5071516;28;20052;-92
2022/01/23 15:23:57;;;;;;;32.45;28.27;;;9.30;67.90;;;;;;5070761;28;20082;-90
2022/01/23 15:26:30;;;;;;;33.60;29.88;;;9.30;67.90;;;;;;5068756;28;20438;-90
2022/01/23 15:28:56;;;;;;;33.80;29.48;;;9.30;68.00;;;;;;5068843;28;20039;-90
2022/01/23 15:31:23;;;;;;;34.78;29.52;;;9.30;68.10;;;;;;5069274;28;20032;-90
2022/01/23 15:33:49;;;;;;;33.38;29.50;;;9.20;67.90;;;;;;5052277;28;20024;-91
2022/01/23 15:36:16;;;;;;;34.22;30.30;;;9.20;68.00;;;;;;5068854;28;20025;-89
2022/01/23 15:38:44;;;;;;;37.30;31.25;;;9.20;68.10;;;;;;5085104;28;20576;-91
2022/01/23 15:41:13;;;;;;;34.60;30.90;;;9.20;68.20;;;;;;5070427;28;20162;-94
2022/01/23 15:43:40;;;;;;;31.45;28.05;;;9.10;68.00;;;;;;5071303;28;20040;-95
2022/01/23 15:46:06;;;;;;;34.30;29.85;;;9.10;68.10;;;;;;5071022;28;20056;-91
2022/01/23 15:48:33;;;;;;;35.10;29.55;;;9.00;68.50;;;;;;5071003;28;20117;-88
2022/01/23 15:51:00;;;;;;;34.83;31.08;;;9.00;68.00;;;;;;5069622;28;20040;-90
2022/01/23 15:53:26;;;;;;;33.42;29.85;;;9.00;68.10;;;;;;5069917;28;20059;-91
2022/01/23 15:55:52;;;;;;;33.75;30.27;;;9.00;68.20;;;;;;5069764;28;20032;-91
2022/01/23 15:58:19;;;;;;;33.92;30.23;;;8.90;68.00;;;;;;5069210;28;20044;-92
2022/01/23 16:00:47;;;;;;;33.72;30.05;;;8.90;68.10;;;;;;5069875;28;20397;-91
2022/01/23 16:03:13;;;;;;;34.65;30.58;;;8.90;68.20;;;;;;5069381;28;20472;-82
2022/01/23 16:05:39;;;;;;;36.13;31.38;;;8.90;68.20;;;;;;5068727;28;20533;-85
2022/01/23 16:08:05;;;;;;;38.22;32.78;;;8.80;68.20;;;;;;5067679;28;20040;-90
2022/01/23 16:10:31;;;;;;;35.67;31.83;;;8.80;68.20;;;;;;5068949;28;20025;-89
2022/01/23 16:12:57;;;;;;;35.55;31.67;;;8.80;68.30;;;;;;5067669;28;20112;-90
2022/01/23 16:15:23;;;;;;;37.47;32.42;;;8.70;68.20;;;;;;5068273;28;20484;-93
2022/01/23 16:17:50;;;;;;;37.92;33.22;;;8.70;68.30;;;;;;5069491;28;20040;-92
2022/01/23 16:20:25;;;;;;;37.38;31.65;;;8.70;68.40;;;;;;5066533;28;20068;-91
2022/01/23 16:22:51;;;;;;;36.22;31.13;;;8.60;68.30;;;;;;5068572;28;20131;-87
2022/01/23 16:25:18;;;;;;;36.65;31.80;;;8.60;68.40;;;;;;5069070;28;20483;-90
2022/01/23 16:27:44;;;;;;;39.72;33.60;;;8.60;68.50;;;;;;5068249;28;20037;-85
2022/01/23 16:30:11;;;;;;;37.35;32.28;;;8.50;68.40;;;;;;5068228;28;20498;-90
2022/01/23 16:32:37;;;;;;;32.75;27.38;;;8.60;68.60;;;;;;5068207;28;20059;-89
2022/01/23 16:35:04;;;;;;;34.75;29.27;;;8.50;68.50;;;;;;5068339;28;20032;-90
2022/01/23 16:37:30;;;;;;;38.40;31.17;;;8.50;68.80;;;;;;5067917;28;20047;-89
2022/01/23 16:39:56;;;;;;;36.70;31.10;;;8.50;69.00;;;;;;5067808;28;20032;-84
2022/01/23 16:42:22;;;;;;;33.72;29.25;;;8.50;69.10;;;;;;5066322;28;20480;-85